Time;durP1;ratioP1;P1;durP2;ratioP2;P2;SDS_P1;SDS_P2;PMS_P1;PMS_P2;Temp;Humidity;BMP_temperature;BMP_pressure;BME280_temperature;BME280_humidity;BME280_pressure;Samples;Min_cycle;Max_cycle;Signal;HPM_P1;HPM_P2
2023/01/03 00:02:12;;;;;;;39.00;21.02;;;;;;;2.92;100.00;97959.78;5043563;28;20049;-55
2023/01/03 00:04:39;;;;;;;42.38;21.15;;;;;;;3.08;100.00;97983.84;5043589;28;20164;-55
2023/01/03 00:07:12;;;;;;;42.90;21.55;;;;;;;3.08;100.00;97983.84;5043601;28;20057;-55
2023/01/03 00:09:39;;;;;;;60.95;28.67;;;;;;;3.14;100.00;97981.84;5043547;28;20131;-58
2023/01/03 00:12:24;;;;;;;50.55;24.23;;;;;;;3.20;100.00;97972.44;5043213;28;20103;-56
2023/01/03 00:14:58;;;;;;;49.70;25.08;;;;;;;3.21;100.00;97946.66;5042159;28;20053;-56
2023/01/03 00:17:25;;;;;;;51.47;26.13;;;;;;;3.30;100.00;97977.72;5043070;28;20536;-56
2023/01/03 00:19:52;;;;;;;44.75;21.50;;;;;;;3.16;100.00;97946.78;5043004;28;20067;-58
2023/01/03 00:22:19;;;;;;;36.15;18.30;;;;;;;3.27;100.00;97972.88;5045556;28;20048;-56
2023/01/03 00:24:48;;;;;;;40.83;19.10;;;;;;;3.28;100.00;97969.00;5047352;28;20512;-58
2023/01/03 00:27:15;;;;;;;34.88;18.45;;;;;;;3.16;100.00;97945.97;5047175;28;20048;-58
2023/01/03 00:29:42;;;;;;;40.42;18.83;;;;;;;3.24;100.00;97981.66;5047247;28;20057;-56
2023/01/03 00:32:09;;;;;;;41.60;19.95;;;;;;;3.10;100.00;97945.22;5047089;28;20045;-58
2023/01/03 00:34:35;;;;;;;39.00;18.35;;;;;;;3.29;100.00;97962.41;5046960;28;20614;-55
2023/01/03 00:37:03;;;;;;;35.25;17.85;;;;;;;2.83;100.00;97909.56;5047281;28;20071;-58
2023/01/03 00:39:29;;;;;;;45.53;20.45;;;;;;;3.12;100.00;97967.63;5046697;28;20092;-59
2023/01/03 00:41:56;;;;;;;40.42;20.73;;;;;;;2.93;100.00;97944.97;5047031;28;20486;-59
2023/01/03 00:44:22;;;;;;;43.13;20.00;;;;;;;3.04;100.00;97965.59;5046946;28;20139;-56
2023/01/03 00:46:49;;;;;;;33.60;18.10;;;;;;;3.03;100.00;97963.97;5046825;28;20515;-57
2023/01/03 00:49:16;;;;;;;33.45;18.02;;;;;;;3.01;100.00;97960.72;5045627;28;20479;-56
2023/01/03 00:51:43;;;;;;;37.67;17.88;;;;;;;2.70;100.00;97921.28;5045692;28;20474;-56
2023/01/03 00:54:11;;;;;;;38.30;18.38;;;;;;;2.16;100.00;97849.97;5046965;28;20061;-56
2023/01/03 00:56:44;;;;;;;43.17;19.23;;;;;;;2.68;100.00;97957.16;5046377;28;20049;-58
2023/01/03 00:59:13;;;;;;;42.28;18.60;;;;;;;2.48;100.00;97956.66;5046655;28;20053;-58
2023/01/03 01:01:46;;;;;;;42.17;19.80;;;;;;;2.43;100.00;97959.44;5044848;28;20081;-56
2023/01/03 01:04:21;;;;;;;38.30;17.90;;;;;;;2.32;100.00;97936.09;5046458;28;20055;-58
2023/01/03 01:06:52;;;;;;;35.58;17.35;;;;;;;2.42;100.00;97957.84;5045824;28;20064;-55
2023/01/03 01:09:22;;;;;;;32.25;16.90;;;;;;;2.08;100.00;97897.91;5046479;28;20052;-59
2023/01/03 01:11:49;;;;;;;28.98;14.40;;;;;;;2.11;100.00;97888.31;5046558;28;20045;-55
2023/01/03 01:14:21;;;;;;;28.20;13.68;;;;;;;2.52;100.00;97957.66;5046046;28;20654;-56
2023/01/03 01:16:49;;;;;;;29.83;13.52;;;;;;;2.51;100.00;97939.66;5045036;28;20463;-58
2023/01/03 01:19:17;;;;;;;26.95;13.07;;;;;;;2.38;100.00;97921.25;5044752;28;20746;-58
2023/01/03 01:21:44;;;;;;;25.42;13.80;;;;;;;2.47;100.00;97938.59;5046278;28;20049;-58
2023/01/03 01:24:12;;;;;;;29.45;12.85;;;;;;;2.44;100.00;97941.94;5044434;28;20114;-59
2023/01/03 01:26:44;;;;;;;27.87;12.90;;;;;;;2.46;100.00;97931.50;5046152;28;20443;-58
2023/01/03 01:29:12;;;;;;;25.25;11.85;;;;;;;2.56;100.00;97925.91;5046112;28;20303;-56
2023/01/03 01:31:40;;;;;;;23.10;10.88;;;;;;;2.68;100.00;97935.28;5045857;28;20307;-56
2023/01/03 01:34:07;;;;;;;29.38;12.98;;;;;;;2.46;100.00;97876.84;5045814;28;20056;-56
2023/01/03 01:36:36;;;;;;;25.15;13.18;;;;;;;2.82;100.00;97932.56;5045822;28;20494;-59
2023/01/03 01:39:09;;;;;;;24.23;12.13;;;;;;;2.79;100.00;97924.97;5045286;28;20537;-57
2023/01/03 01:44:41;;;;;;;26.75;12.45;;;;;;;2.81;100.00;97922.75;5046046;28;20057;-57
2023/01/03 01:47:16;;;;;;;33.58;14.02;;;;;;;2.80;100.00;97926.59;5046196;28;20061;-55
2023/01/03 01:49:46;;;;;;;29.90;14.10;;;;;;;2.84;100.00;97933.09;5046076;28;20518;-55
2023/01/03 01:52:15;;;;;;;31.95;14.18;;;;;;;2.36;100.00;97849.66;5045785;28;20119;-57
2023/01/03 01:54:42;;;;;;;30.42;14.57;;;;;;;2.22;100.00;97843.31;5045844;28;20146;-57
2023/01/03 01:57:13;;;;;;;34.42;13.93;;;;;;;2.83;100.00;97928.72;5045745;28;20432;-57
2023/01/03 01:59:40;;;;;;;29.05;14.18;;;;;;;2.81;100.00;97928.22;5045592;28;20049;-58
2023/01/03 02:02:08;;;;;;;27.60;14.20;;;;;;;2.74;100.00;97919.56;5045784;28;20115;-55
2023/01/03 02:04:38;;;;;;;30.45;14.20;;;;;;;2.63;100.00;97912.66;5043941;28;20060;-58
2023/01/03 02:07:06;;;;;;;32.00;14.40;;;;;;;2.59;100.00;97919.84;5043900;28;20595;-58
2023/01/03 02:09:34;;;;;;;28.05;14.90;;;;;;;2.43;100.00;97908.31;5045235;28;20106;-58
2023/01/03 02:15:46;;;;;;;27.98;12.73;;;;;;;2.31;100.00;97907.16;5045212;28;20099;-58
2023/01/03 02:18:19;;;;;;;27.42;13.00;;;;;;;2.18;100.00;97902.44;5045183;28;20498;-57
2023/01/03 02:20:51;;;;;;;38.20;16.20;;;;;;;2.18;100.00;97913.34;5044784;28;20057;-55
2023/01/03 02:23:27;;;;;;;35.27;16.30;;;;;;;2.11;100.00;97905.53;5044336;28;20491;-56
2023/01/03 02:26:30;;;;;;;42.92;17.00;;;;;;;1.93;100.00;97908.25;5044949;28;20334;-57
2023/01/03 02:29:11;;;;;;;37.20;16.83;;;;;;;2.02;100.00;97903.75;5037778;28;20080;-57
2023/01/03 02:31:49;;;;;;;34.53;15.90;;;;;;;2.07;100.00;97900.94;5044751;28;20088;-55
2023/01/03 02:34:22;;;;;;;34.78;16.65;;;;;;;2.17;100.00;97906.25;5043502;28;20435;-55
2023/01/03 02:37:04;;;;;;;35.03;16.20;;;;;;;2.21;100.00;97901.81;5043641;28;20486;-58
2023/01/03 02:39:42;;;;;;;35.55;16.45;;;;;;;2.02;100.00;97898.28;5043123;28;20451;-55
2023/01/03 02:45:42;;;;;;;34.53;15.95;;;;;;;1.95;100.00;97900.53;5044000;28;20089;-58
2023/01/03 02:48:12;;;;;;;44.65;17.30;;;;;;;1.90;100.00;97906.09;5043979;28;20114;-57
2023/01/03 02:50:47;;;;;;;40.38;17.70;;;;;;;1.82;100.00;97904.03;5044168;28;20084;-57
2023/01/03 02:53:31;;;;;;;35.67;15.57;;;;;;;1.76;100.00;97910.63;5042958;28;20053;-57
2023/01/03 02:56:05;;;;;;;35.13;14.75;;;;;;;1.75;100.00;97906.28;5044411;28;20052;-58
2023/01/03 02:58:33;;;;;;;;;;;;;;;1.87;100.00;97912.13;5043818;28;20080;-57
2023/01/03 03:01:02;;;;;;;28.30;13.07;;;;;;;1.31;100.00;97862.88;5042563;28;20028;-58
2023/01/03 03:03:35;;;;;;;24.20;12.32;;;;;;;1.27;100.00;97857.19;5043105;28;20064;-58
2023/01/03 03:06:08;;;;;;;27.67;12.23;;;;;;;1.52;100.00;97892.38;5042610;28;20053;-57
2023/01/03 03:08:35;;;;;;;28.08;11.30;;;;;;;1.54;100.00;97876.53;5044420;28;20144;-55
2023/01/03 03:13:59;;;;;;;29.52;11.70;;;;;;;1.07;100.00;97816.53;5044546;28;20111;-57
2023/01/03 03:16:50;;;;;;;27.85;12.07;;;;;;;1.61;100.00;97891.72;5044103;28;20064;-55
2023/01/03 03:25:13;;;;;;;32.15;14.25;;;;;;;1.71;100.00;97903.31;5044260;28;20122;-57
2023/01/03 03:30:32;;;;;;;32.70;14.68;;;;;;;1.32;100.00;97846.22;5044054;28;20126;-58
2023/01/03 03:33:05;;;;;;;32.65;14.23;;;;;;;1.72;100.00;97894.03;5043774;28;20312;-55
2023/01/03 03:35:53;;;;;;;28.52;13.75;;;;;;;1.49;100.00;97862.94;5042340;28;20061;-58
2023/01/03 03:38:27;;;;;;;32.33;16.17;;;;;;;1.78;100.00;97892.03;5015833;28;20054;-55
2023/01/03 03:47:17;;;;;;;34.03;17.67;;;;;;;1.93;100.00;97894.59;4984655;28;20128;-58
2023/01/03 03:49:47;;;;;;;36.00;17.20;;;;;;;1.90;100.00;97873.31;4984988;28;20070;-59
2023/01/03 03:52:21;;;;;;;54.45;25.52;;;;;;;2.08;100.00;97888.91;4984659;28;20062;-58
2023/01/03 03:54:54;;;;;;;43.83;19.65;;;;;;;2.05;100.00;97900.41;4983484;28;20136;-55
2023/01/03 03:57:38;;;;;;;37.42;19.85;;;;;;;2.02;100.00;97893.63;4988686;28;20141;-56
2023/01/03 04:00:11;;;;;;;46.78;21.42;;;;;;;1.97;100.00;97868.28;4988939;28;20596;-58
2023/01/03 04:02:41;;;;;;;41.47;21.95;;;;;;;2.08;100.00;97881.53;4988500;28;20078;-59
2023/01/03 04:05:11;;;;;;;52.45;24.40;;;;;;;2.17;100.00;97887.13;4988509;28;20136;-57
2023/01/03 04:07:39;;;;;;;53.85;25.38;;;;;;;2.22;100.00;97881.56;4988015;28;20461;-57
2023/01/03 04:10:08;;;;;;;37.00;18.30;;;;;;;2.18;100.00;97886.03;4988733;28;20137;-58
2023/01/03 04:12:34;;;;;;;35.13;17.13;;;;;;;2.28;100.00;97881.22;4988035;28;20081;-57
2023/01/03 04:15:02;;;;;;;23.00;12.18;;;;;;;2.31;100.00;97879.81;4988438;28;20113;-58
2023/01/03 04:17:29;;;;;;;25.17;13.05;;;;;;;2.41;100.00;97885.13;4986527;28;20053;-55
2023/01/03 04:19:55;;;;;;;30.08;14.68;;;;;;;2.38;100.00;97877.50;4988301;28;20055;-58
2023/01/03 04:22:22;;;;;;;58.47;25.02;;;;;;;2.33;100.00;97883.06;4987791;28;20081;-58
2023/01/03 04:24:49;;;;;;;53.90;22.25;;;;;;;2.38;100.00;97874.78;4988222;28;20053;-59
2023/01/03 04:27:15;;;;;;;66.57;27.60;;;;;;;2.10;100.00;97879.31;4987935;28;20054;-58
2023/01/03 04:29:42;;;;;;;126.63;41.28;;;;;;;2.01;100.00;97881.06;4988170;28;20065;-58
2023/01/03 04:32:09;;;;;;;222.75;69.40;;;;;;;1.90;100.00;97884.25;4987812;28;20085;-55
2023/01/03 04:34:36;;;;;;;138.20;50.78;;;;;;;1.96;100.00;97883.06;4988143;28;20153;-56
2023/01/03 04:37:02;;;;;;;141.18;50.92;;;;;;;1.92;100.00;97876.56;4987764;28;20133;-55
2023/01/03 04:39:29;;;;;;;154.52;55.50;;;;;;;1.53;100.00;97825.75;4987786;28;20054;-58
2023/01/03 04:41:55;;;;;;;129.95;49.75;;;;;;;1.82;100.00;97872.03;4986252;28;20109;-55
2023/01/03 04:44:22;;;;;;;127.20;55.50;;;;;;;1.83;100.00;97878.31;4988080;28;20501;-57
2023/01/03 04:46:49;;;;;;;116.85;45.95;;;;;;;1.86;100.00;97877.72;4987817;28;20515;-58
2023/01/03 04:49:19;;;;;;;118.10;46.40;;;;;;;1.54;100.00;97872.97;4988096;28;20104;-57
2023/01/03 04:51:45;;;;;;;116.47;44.25;;;;;;;1.78;100.00;97881.13;4966645;28;20047;-56
2023/01/03 04:54:12;;;;;;;98.32;36.85;;;;;;;1.25;100.00;97818.47;4966654;28;20094;-55
2023/01/03 04:56:39;;;;;;;90.90;34.67;;;;;;;1.50;100.00;97880.13;4968319;28;20071;-58
2023/01/03 04:59:05;;;;;;;72.88;28.92;;;;;;;1.58;100.00;97893.94;4968118;28;20477;-58
2023/01/03 05:01:32;;;;;;;75.45;29.02;;;;;;;1.41;100.00;97892.78;4967930;28;20050;-58
2023/01/03 05:04:01;;;;;;;81.70;32.85;;;;;;;1.48;100.00;97899.53;4967972;28;20510;-59
2023/01/03 05:06:28;;;;;;;78.88;32.42;;;;;;;1.32;100.00;97878.97;4967600;28;20533;-58
2023/01/03 05:08:55;;;;;;;82.78;31.83;;;;;;;1.39;100.00;97906.72;4965731;28;20139;-55
2023/01/03 05:11:22;;;;;;;81.10;32.15;;;;;;;1.35;100.00;97900.22;4982439;28;20418;-58
2023/01/03 05:13:49;;;;;;;80.07;31.48;;;;;;;1.38;100.00;97905.09;4968174;28;20078;-55
2023/01/03 05:16:15;;;;;;;80.00;33.75;;;;;;;1.46;100.00;97899.00;4967611;28;20051;-56
2023/01/03 05:18:42;;;;;;;87.75;36.13;;;;;;;1.56;100.00;97898.84;4965998;28;20051;-56
2023/01/03 05:26:47;;;;;;;92.55;38.42;;;;;;;1.45;100.00;97861.06;4967453;28;20059;-55
2023/01/03 05:29:17;;;;;;;96.13;39.08;;;;;;;1.68;100.00;97908.53;4967539;28;20046;-58
2023/01/03 05:31:43;;;;;;;93.28;39.85;;;;;;;1.72;100.00;97898.69;4967342;28;20058;-58
2023/01/03 05:34:11;;;;;;;98.53;41.13;;;;;;;1.76;100.00;97907.91;4967442;28;20055;-55
2023/01/03 05:36:37;;;;;;;108.60;43.15;;;;;;;1.75;100.00;97914.47;4967493;28;20728;-58
2023/01/03 05:39:04;;;;;;;101.07;44.25;;;;;;;1.79;100.00;97910.06;4967031;28;20075;-58
2023/01/03 05:44:16;;;;;;;125.75;47.00;;;;;;;1.54;100.00;97881.97;4967263;28;20056;-56
2023/01/03 05:46:43;;;;;;;126.28;47.53;;;;;;;1.68;100.00;97914.00;4967557;28;20062;-56
2023/01/03 05:49:10;;;;;;;109.78;43.38;;;;;;;1.23;99.19;97839.75;4967193;28;20066;-58
2023/01/03 05:51:36;;;;;;;128.88;52.78;;;;;;;1.64;98.64;97924.72;4968906;28;20139;-56
2023/01/03 05:54:04;;;;;;;134.45;52.00;;;;;;;1.53;99.53;97918.56;4984941;28;20488;-56
2023/01/03 05:56:31;;;;;;;135.10;51.22;;;;;;;1.17;100.00;97881.84;4986153;28;20116;-56
2023/01/03 05:58:59;;;;;;;134.90;53.50;;;;;;;1.58;100.00;97925.91;4986370;28;20073;-56
2023/01/03 06:01:27;;;;;;;106.00;46.17;;;;;;;1.65;100.00;97920.06;4986201;28;20054;-58
2023/01/03 06:03:54;;;;;;;125.32;49.03;;;;;;;1.68;100.00;97931.22;4985507;28;20113;-55
2023/01/03 06:06:21;;;;;;;120.18;46.20;;;;;;;1.61;100.00;97927.22;4986373;28;20508;-55
2023/01/03 06:08:48;;;;;;;112.13;44.22;;;;;;;1.64;100.00;97912.97;4986029;28;20063;-58
2023/01/03 06:11:16;;;;;;;109.40;45.30;;;;;;;1.76;100.00;97927.00;4985859;28;20053;-59
2023/01/03 06:13:43;;;;;;;109.88;43.63;;;;;;;1.20;100.00;97815.78;4985540;28;20047;-57
2023/01/03 06:19:03;;;;;;;122.28;46.80;;;;;;;1.96;100.00;97943.16;4984982;28;20509;-59
2023/01/03 06:21:30;;;;;;;117.38;44.47;;;;;;;1.51;100.00;97855.28;4986021;28;20085;-58
2023/01/03 06:23:56;;;;;;;103.43;43.05;;;;;;;2.13;100.00;97933.38;4985770;28;20519;-56
2023/01/03 06:26:24;;;;;;;108.38;41.42;;;;;;;2.21;99.52;97929.16;4985723;28;20406;-58
2023/01/03 06:28:51;;;;;;;92.20;39.55;;;;;;;1.84;97.44;97940.03;4985767;28;20058;-56
2023/01/03 06:31:18;;;;;;;94.75;36.78;;;;;;;1.74;100.00;97915.59;4985178;28;20525;-55
2023/01/03 06:33:45;;;;;;;102.53;39.63;;;;;;;1.28;99.88;97817.88;4985649;28;20100;-56
2023/01/03 06:36:14;;;;;;;94.30;36.65;;;;;;;1.98;96.46;97940.94;4985577;28;20128;-58
2023/01/03 06:38:41;;;;;;;125.53;55.08;;;;;;;2.08;96.76;97940.81;4985243;28;20066;-56
2023/01/03 06:41:08;;;;;;;109.13;47.00;;;;;;;2.23;97.82;97948.81;4985357;28;20113;-56
2023/01/03 06:43:35;;;;;;;113.35;44.97;;;;;;;2.18;96.83;97913.34;4985329;28;20077;-56
2023/01/03 06:54:30;;;;;;;80.43;33.45;;;;;;;2.74;98.46;97933.25;4966273;28;20058;-55
2023/01/03 06:56:58;;;;;;;70.30;32.13;;;;;;;2.87;97.74;97932.50;4965584;28;20607;-56
2023/01/03 06:59:25;;;;;;;72.68;33.78;;;;;;;3.07;98.04;97926.66;4966040;28;20078;-55
2023/01/03 07:01:53;;;;;;;66.05;31.33;;;;;;;3.22;97.94;97928.31;4965901;28;20137;-56
2023/01/03 07:04:22;;;;;;;58.55;28.63;;;;;;;2.82;97.39;97847.78;4972111;28;20070;-56
2023/01/03 07:06:49;;;;;;;48.55;22.88;;;;;;;3.49;97.59;97912.75;4976034;28;21387;-58
2023/01/03 07:09:15;;;;;;;44.60;21.60;;;;;;;3.11;96.09;97837.38;4979050;28;20058;-57
2023/01/03 07:11:42;;;;;;;60.08;20.25;;;;;;;3.74;95.82;97936.09;4970450;28;20528;-61
2023/01/03 07:14:11;;;;;;;36.72;15.85;;;;;;;0.99;95.57;97503.50;4975955;28;20105;-58
2023/01/03 07:16:40;;;;;;;44.83;21.02;;;;;;;4.06;96.79;97934.03;4975434;28;20054;-64
2023/01/03 07:19:11;;;;;;;43.00;19.35;;;;;;;4.27;96.90;97929.72;4980127;28;20673;-57
2023/01/03 07:21:37;;;;;;;42.72;18.33;;;;;;;4.54;97.23;97929.66;4978265;28;20433;-59
2023/01/03 07:24:06;;;;;;;80.40;40.47;;;;;;;4.81;97.39;97941.63;4985242;28;20046;-64
2023/01/03 07:26:34;;;;;;;117.00;51.42;;;;;;;4.90;95.21;97909.59;4982716;28;20050;-59
2023/01/03 07:29:02;;;;;;;201.20;77.93;;;;;;;5.32;92.81;97931.00;4979555;28;20055;-59
2023/01/03 07:31:31;;;;;;;201.73;89.25;;;;;;;4.87;93.22;97827.88;4972963;28;20090;-60
2023/01/03 07:33:59;;;;;;;210.27;91.70;;;;;;;5.05;94.45;97832.31;4982531;28;20090;-61
2023/01/03 07:36:25;;;;;;;185.45;76.93;;;;;;;6.01;94.64;97927.44;4983120;28;20054;-56
2023/01/03 07:38:54;;;;;;;164.73;78.20;;;;;;;6.31;94.82;97928.50;4963866;28;20113;-56
2023/01/03 07:43:35;;;;;;;154.77;73.72;;;;;;;6.34;89.58;97928.66;4967117;28;20054;-61
2023/01/03 07:44:09;;;;;;;152.30;71.97;;;;;;;6.41;90.10;97868.47;4982416;28;20061;-59
2023/01/03 07:46:35;;;;;;;144.32;74.00;;;;;;;6.96;90.45;97918.97;4976933;28;20054;-56
2023/01/03 07:49:02;;;;;;;137.40;70.10;;;;;;;7.11;88.53;97912.94;4963064;28;20162;-56
2023/01/03 07:51:36;;;;;;;143.68;73.68;;;;;;;6.62;87.31;97841.91;4970585;28;20066;-56
2023/01/03 07:54:03;;;;;;;98.50;53.78;;;;;;;7.27;85.45;97908.53;4982372;28;20078;-60
2023/01/03 07:56:30;;;;;;;131.57;69.35;;;;;;;7.45;84.91;97921.16;4984002;28;20050;-56
2023/01/03 07:58:56;;;;;;;105.70;56.92;;;;;;;7.54;83.66;97919.16;4964190;28;20062;-56
2023/01/03 08:01:23;;;;;;;89.18;44.63;;;;;;;7.31;83.75;97881.97;4965277;28;20046;-57
2023/01/03 08:03:51;;;;;;;71.80;39.90;;;;;;;7.04;85.30;97860.31;4968477;28;20436;-60
2023/01/03 08:06:20;;;;;;;61.45;32.60;;;;;;;7.27;85.58;97869.97;4983765;28;20061;-57
2023/01/03 08:13:16;;;;;;;61.35;33.40;;;;;;;7.65;86.00;97914.09;4982115;28;20112;-57
2023/01/03 08:14:19;;;;;;;47.53;26.63;;;;;;;8.04;86.19;97910.19;4969043;28;20145;-57
2023/01/03 08:16:51;;;;;;;54.92;30.73;;;;;;;7.63;85.41;97839.97;4964792;28;20499;-59
2023/01/03 08:19:18;;;;;;;66.45;33.00;;;;;;;7.74;85.65;97830.19;4971702;28;20062;-57
2023/01/03 08:21:45;;;;;;;64.78;39.35;;;;;;;7.92;84.82;97808.03;4970314;28;20061;-61
2023/01/03 08:24:11;;;;;;;68.88;39.00;;;;;;;8.81;84.02;97907.75;4978923;28;20427;-59
2023/01/03 08:26:38;;;;;;;56.17;33.67;;;;;;;8.96;81.19;97907.16;4967380;28;20057;-59
2023/01/03 08:29:06;;;;;;;57.42;34.45;;;;;;;9.03;80.15;97910.16;4982353;28;20081;-57
2023/01/03 08:31:37;;;;;;;59.97;36.25;;;;;;;8.85;80.40;97865.28;4982782;28;20072;-55
2023/01/03 08:34:07;;;;;;;55.97;34.05;;;;;;;9.53;79.54;97913.53;4983886;28;20511;-57
2023/01/03 08:36:50;;;;;;;50.55;30.85;;;;;;;9.71;78.64;97898.38;4976979;28;20105;-57
2023/01/03 08:39:23;;;;;;;59.38;35.67;;;;;;;9.90;78.29;97901.38;4961999;28;20051;-58
2023/01/03 08:41:56;;;;;;;54.45;32.65;;;;;;;10.15;78.12;97911.34;4963537;28;20050;-64
2023/01/03 08:44:24;;;;;;;;;;;;;;;10.38;77.28;97901.41;4968190;28;20053;-63
2023/01/03 08:46:53;;;;;;;51.30;26.02;;;;;;;10.45;76.43;97896.09;4967926;28;20389;-58
2023/01/03 08:49:20;;;;;;;33.25;19.85;;;;;;;10.11;75.43;97805.22;4985770;28;20054;-59
2023/01/03 08:51:47;;;;;;;33.10;19.27;;;;;;;10.64;74.77;97868.56;4984537;28;20046;-63
2023/01/03 08:54:14;;;;;;;39.30;25.08;;;;;;;10.95;74.44;97886.50;4981587;28;20131;-62
2023/01/03 08:56:40;;;;;;;27.83;18.05;;;;;;;11.17;73.74;97883.16;4981120;28;20062;-58
2023/01/03 08:59:07;;;;;;;23.35;14.23;;;;;;;11.36;72.95;97889.66;4984903;28;20053;-59
2023/01/03 09:01:34;;;;;;;24.83;17.15;;;;;;;11.60;72.66;97885.94;4976757;28;20085;-60
2023/01/03 09:04:01;;;;;;;21.88;15.05;;;;;;;11.84;72.15;97880.22;4978705;28;20049;-62
2023/01/03 09:06:28;;;;;;;20.45;11.18;;;;;;;11.53;71.37;97803.31;4977734;28;20054;-63
2023/01/03 09:08:54;;;;;;;22.42;12.18;;;;;;;12.04;71.71;97860.53;4986849;28;20447;-60
2023/01/03 09:11:21;;;;;;;24.30;15.60;;;;;;;12.27;71.72;97866.22;4986557;28;20486;-60
2023/01/03 09:13:48;;;;;;;25.48;16.25;;;;;;;12.48;71.06;97860.34;4980848;28;20053;-58
2023/01/03 09:16:15;;;;;;;22.73;13.98;;;;;;;12.50;70.16;97863.59;4986384;28;20057;-59
2023/01/03 09:18:42;;;;;;;27.08;13.55;;;;;;;12.55;69.72;97855.75;4985819;28;20050;-57
2023/01/03 09:21:09;;;;;;;24.98;17.40;;;;;;;12.64;69.86;97845.25;4984305;28;20390;-59
2023/01/03 09:23:36;;;;;;;24.20;16.38;;;;;;;12.53;69.36;97801.72;4974884;28;20108;-59
2023/01/03 09:26:03;;;;;;;19.40;13.60;;;;;;;12.79;69.02;97833.25;4965585;28;20055;-65
2023/01/03 09:28:30;;;;;;;21.75;12.65;;;;;;;12.85;68.03;97848.47;4971108;28;20694;-59
2023/01/03 09:30:57;;;;;;;21.50;12.38;;;;;;;12.63;67.77;97784.47;4999137;28;20722;-59
2023/01/03 09:33:23;;;;;;;18.67;12.35;;;;;;;13.08;68.01;97829.94;4983533;28;20050;-57
2023/01/03 09:35:54;;;;;;;16.00;12.55;;;;;;;13.20;67.50;97823.38;4983483;28;20100;-60
2023/01/03 09:38:21;;;;;;;22.38;10.98;;;;;;;12.42;65.90;97673.69;4983359;28;20062;-61
2023/01/03 09:40:58;;;;;;;19.17;10.38;;;;;;;13.62;65.57;97811.03;4966194;28;20120;-58
2023/01/03 09:43:32;;;;;;;17.63;10.25;;;;;;;13.78;64.58;97812.91;4964405;28;20050;-58
2023/01/03 09:46:00;;;;;;;34.85;12.43;;;;;;;13.98;63.68;97817.22;4966544;28;20587;-57
2023/01/03 09:48:39;;;;;;;30.50;17.30;;;;;;;14.18;63.28;97776.94;4966793;28;20062;-60
2023/01/03 10:03:42;;;;;;;17.95;10.23;;;;;;;14.05;62.37;97756.03;4981035;28;20536;-58
2023/01/03 10:05:39;;;;;;;13.98;7.13;;;;;;;14.82;59.95;97768.28;4966011;28;20058;-60
2023/01/03 10:08:15;;;;;;;18.15;9.25;;;;;;;14.99;59.54;97762.09;4978886;28;20055;-64
2023/01/03 10:10:52;;;;;;;16.73;7.82;;;;;;;14.67;58.48;97716.28;4983598;28;20072;-60
2023/01/03 10:13:28;;;;;;;15.73;7.03;;;;;;;15.23;57.63;97753.19;4985555;28;20058;-58
2023/01/03 10:16:02;;;;;;;19.95;10.25;;;;;;;15.41;57.27;97745.84;4975684;28;20793;-56
2023/01/03 10:18:59;;;;;;;15.45;7.85;;;;;;;15.62;57.00;97751.59;4981882;28;20093;-58
2023/01/03 10:21:32;;;;;;;12.23;7.70;;;;;;;15.82;57.03;97744.56;4985251;28;20054;-62
2023/01/03 10:23:58;;;;;;;17.65;8.27;;;;;;;16.00;56.52;97742.72;4974991;28;20447;-59
2023/01/03 10:26:32;;;;;;;12.70;7.55;;;;;;;16.07;54.38;97739.97;4976162;28;20112;-56
2023/01/03 10:29:00;;;;;;;17.80;7.72;;;;;;;16.28;54.96;97731.72;4985381;28;20050;-62
2023/01/03 10:31:57;;;;;;;10.13;6.70;;;;;;;16.29;53.92;97708.16;4978783;28;20419;-62
2023/01/03 10:34:23;;;;;;;9.90;7.65;;;;;;;16.48;53.75;97718.28;4978664;28;20065;-60
2023/01/03 10:36:50;;;;;;;15.93;9.98;;;;;;;16.73;53.21;97721.16;4968913;28;20046;-58
2023/01/03 10:39:29;;;;;;;14.63;9.45;;;;;;;16.90;52.99;97720.44;4965643;28;20486;-59
2023/01/03 10:41:59;;;;;;;17.70;9.57;;;;;;;17.05;52.01;97710.88;4980076;28;20310;-57
2023/01/03 10:44:29;;;;;;;23.95;12.25;;;;;;;17.10;51.81;97707.69;4965941;28;20097;-56
2023/01/03 10:46:58;;;;;;;20.85;11.27;;;;;;;17.34;51.29;97707.72;4964675;28;20639;-58
2023/01/03 10:49:30;;;;;;;15.75;9.98;;;;;;;17.56;50.13;97708.59;4965135;28;20055;-56
2023/01/03 10:52:00;;;;;;;10.95;7.78;;;;;;;17.76;48.23;97701.38;4970470;28;20051;-56
2023/01/03 10:54:34;;;;;;;10.48;7.50;;;;;;;17.62;48.14;97698.56;4973953;28;20058;-58
2023/01/03 10:57:01;;;;;;;9.32;5.95;;;;;;;17.30;46.99;97616.50;4964948;28;20051;-56
2023/01/03 10:59:30;;;;;;;15.57;7.90;;;;;;;17.55;47.48;97645.31;4980030;28;20129;-56
2023/01/03 11:02:15;;;;;;;10.23;6.85;;;;;;;17.87;47.47;97691.75;4970982;28;20055;-59
2023/01/03 11:04:42;;;;;;;11.57;7.43;;;;;;;18.02;47.00;97681.28;4975368;28;20046;-59
2023/01/03 11:07:12;;;;;;;9.88;7.80;;;;;;;18.01;47.62;97679.72;4981669;28;20599;-58
2023/01/03 11:09:53;;;;;;;376.95;68.88;;;;;;;17.95;43.99;97630.84;4967803;28;20532;-59
2023/01/03 11:12:35;;;;;;;11.75;6.40;;;;;;;18.15;44.05;97648.81;4968048;28;20478;-58
2023/01/03 11:15:13;;;;;;;18.02;7.22;;;;;;;17.64;44.79;97556.06;4973680;28;20046;-61
2023/01/03 11:17:54;;;;;;;8.77;5.75;;;;;;;18.38;43.65;97657.59;4964734;28;20506;-60
2023/01/03 11:20:28;;;;;;;11.15;5.88;;;;;;;18.15;43.17;97605.97;4972131;28;20089;-58
2023/01/03 11:23:13;;;;;;;5.85;4.90;;;;;;;18.61;41.76;97654.28;4982703;28;20096;-61
2023/01/03 11:26:04;;;;;;;4.00;3.60;;;;;;;18.29;41.35;97637.56;4982521;28;20058;-60
2023/01/03 11:29:21;;;;;;;4.88;4.35;;;;;;;18.59;42.42;97646.28;4973220;28;20049;-58
2023/01/03 11:32:23;;;;;;;6.57;4.30;;;;;;;18.17;42.94;97576.31;4965806;28;20082;-61
2023/01/03 11:35:12;;;;;;;4.47;4.05;;;;;;;18.63;41.96;97644.28;4975793;28;20046;-60
2023/01/03 11:38:14;;;;;;;5.15;3.88;;;;;;;18.34;41.59;97642.75;4983610;28;20555;-62
2023/01/03 11:41:01;;;;;;;3.95;3.25;;;;;;;18.44;42.49;97636.34;4978972;28;20593;-59
2023/01/03 11:43:40;;;;;;;4.60;4.20;;;;;;;18.57;42.99;97636.69;4975230;28;20050;-58
2023/01/03 11:46:27;;;;;;;7.78;4.55;;;;;;;18.70;43.27;97621.75;4981069;28;20058;-61
2023/01/03 11:48:59;;;;;;;5.43;4.30;;;;;;;18.77;42.75;97621.72;4983077;28;20046;-60
2023/01/03 11:52:04;;;;;;;4.57;4.07;;;;;;;18.60;43.87;97628.25;4983604;28;20046;-60
2023/01/03 11:54:56;;;;;;;7.55;4.30;;;;;;;18.68;43.68;97612.16;4983496;28;20122;-55
2023/01/03 11:57:35;;;;;;;5.50;4.55;;;;;;;18.56;44.66;97624.66;4975725;28;20074;-57
2023/01/03 12:00:31;;;;;;;5.97;4.93;;;;;;;18.63;43.78;97612.59;4975511;28;20937;-56
2023/01/03 12:03:27;;;;;;;9.52;4.90;;;;;;;18.69;43.30;97611.75;4970063;28;20102;-58
2023/01/03 12:06:05;;;;;;;6.60;3.85;;;;;;;18.71;43.18;97605.72;4973091;28;20541;-60
2023/01/03 12:08:41;;;;;;;4.90;4.32;;;;;;;18.79;43.75;97608.09;4977813;28;20074;-56
2023/01/03 12:11:35;;;;;;;7.50;5.00;;;;;;;18.88;43.85;97611.22;4963091;28;20691;-61
2023/01/03 12:14:13;;;;;;;;;;;;;;;18.89;43.59;97612.81;4964615;28;20687;-57
2023/01/03 12:17:09;;;;;;;9.05;6.10;;;;;;;18.81;45.09;97607.69;4981621;28;19929;-61
2023/01/03 12:19:48;;;;;;;6.55;5.50;;;;;;;18.82;45.28;97601.66;4982787;28;20366;-57
2023/01/03 12:22:21;;;;;;;9.55;7.40;;;;;;;18.75;45.84;97607.31;4983223;28;20407;-57
2023/01/03 12:24:58;;;;;;;11.88;6.75;;;;;;;18.77;46.02;97593.66;4975699;28;20054;-65
2023/01/03 12:27:41;;;;;;;7.10;6.40;;;;;;;18.87;45.80;97598.41;4976686;28;20070;-61
2023/01/03 12:30:25;;;;;;;6.93;5.95;;;;;;;18.86;45.77;97590.38;4979813;28;20059;-61
2023/01/03 12:32:59;;;;;;;6.32;5.80;;;;;;;18.93;45.81;97596.78;4967140;28;20050;-58
2023/01/03 12:35:44;;;;;;;9.10;7.70;;;;;;;18.96;45.38;97579.09;4982779;28;20137;-61
2023/01/03 12:38:11;;;;;;;6.80;6.00;;;;;;;18.96;45.51;97590.31;4968379;28;20149;-60
2023/01/03 12:40:47;;;;;;;7.38;5.72;;;;;;;18.54;45.96;97528.84;4971002;28;20129;-59
2023/01/03 12:43:41;;;;;;;198.20;73.95;;;;;;;16.52;45.61;97236.03;4985744;28;20566;-58
2023/01/03 12:46:10;;;;;;;;;;;;;;;19.09;45.62;97588.63;4987141;28;20050;-58